createdAt,value
2018-09-08T00:02:18.972Z,99526.61
2018-09-08T00:04:47.904Z,99523.66
2018-09-08T00:07:21.940Z,99525.83
2018-09-08T00:09:50.908Z,99529.78
2018-09-08T00:12:19.845Z,99533.44
2018-09-08T00:14:47.768Z,99530.09
2018-09-08T00:17:24.552Z,99533.05
2018-09-08T00:19:58.451Z,99537.13
2018-09-08T00:22:32.439Z,99540.31
2018-09-08T00:25:06.333Z,99542.63
2018-09-08T00:27:42.684Z,99537.13
2018-09-08T00:30:13.763Z,99534.93
2018-09-08T00:32:42.735Z,99547.02
2018-09-08T00:35:11.744Z,99555.24
2018-09-08T00:37:40.679Z,99557.52
2018-09-08T00:40:09.632Z,99550.97
2018-09-08T00:42:38.614Z,99556.00
2018-09-08T00:45:07.739Z,99557.70
2018-09-08T00:47:36.687Z,99553.78
2018-09-08T00:50:05.844Z,99545.05
2018-09-08T00:52:34.857Z,99539.01
2018-09-08T00:55:03.804Z,99540.30
2018-09-08T00:57:32.791Z,99544.03
2018-09-08T01:00:01.785Z,99545.66
2018-09-08T01:02:30.784Z,99546.56
2018-09-08T01:04:59.728Z,99546.71
2018-09-08T01:07:31.355Z,99546.98
2018-09-08T01:10:02.363Z,99541.02
2018-09-08T01:12:31.662Z,99545.01
2018-09-08T01:15:01.244Z,99540.58
2018-09-08T01:17:30.183Z,99551.58
2018-09-08T01:19:59.147Z,99551.23
2018-09-08T01:22:28.340Z,99555.11
2018-09-08T01:24:57.385Z,99552.33
2018-09-08T01:27:26.393Z,99550.13
2018-09-08T01:29:55.381Z,99514.22
2018-09-08T01:32:24.355Z,99551.34
2018-09-08T01:34:53.561Z,99557.81
2018-09-08T01:37:22.617Z,99548.98
2018-09-08T01:39:51.623Z,99546.78
2018-09-08T01:42:20.661Z,99548.18
2018-09-08T01:44:49.597Z,99502.06
2018-09-08T01:47:18.620Z,99551.87
2018-09-08T01:49:47.564Z,99557.63
2018-09-08T01:52:16.554Z,99550.94
2018-09-08T01:54:45.512Z,99550.28
2018-09-08T01:57:14.548Z,99554.30
2018-09-08T01:59:43.606Z,99546.80
2018-09-08T02:02:12.621Z,99559.19
2018-09-08T02:04:41.565Z,99562.78
2018-09-08T02:07:10.512Z,99559.28
2018-09-08T02:09:39.436Z,99559.48
2018-09-08T02:12:08.396Z,99560.84
2018-09-08T02:14:37.488Z,99566.00
2018-09-08T02:17:06.785Z,99560.36
2018-09-08T02:19:35.829Z,99568.08
2018-09-08T02:22:05.036Z,99569.18
2018-09-08T02:24:34.037Z,99570.94
2018-09-08T02:27:03.045Z,99571.87
2018-09-08T02:29:32.009Z,99573.98
2018-09-08T02:32:01.047Z,99575.35
2018-09-08T02:34:29.989Z,99572.70
2018-09-08T02:36:58.923Z,99576.69
2018-09-08T02:39:27.868Z,99581.44
2018-09-08T02:41:56.873Z,99577.38
2018-09-08T02:44:25.865Z,99578.28
2018-09-08T02:46:54.819Z,99579.64
2018-09-08T02:49:25.041Z,99581.37
2018-09-08T02:51:52.574Z,99584.42
2018-09-08T02:54:20.149Z,99582.13
2018-09-08T02:56:47.722Z,99587.95
2018-09-08T02:59:15.205Z,99587.52
2018-09-08T03:01:42.719Z,99589.64
2018-09-08T03:04:10.185Z,99590.73
2018-09-08T03:06:37.705Z,99588.94
2018-09-08T03:09:05.297Z,99587.91
2018-09-08T03:11:32.813Z,99587.66
2018-09-08T03:14:00.340Z,99588.31
2018-09-08T03:16:27.852Z,99596.92
2018-09-08T03:18:55.308Z,99601.00
2018-09-08T03:21:22.837Z,99601.73
2018-09-08T03:23:50.294Z,99598.21
2018-09-08T03:26:17.862Z,99601.41
2018-09-08T03:28:45.355Z,99612.31
2018-09-08T03:31:12.816Z,99608.09
2018-09-08T03:33:40.291Z,99610.08
2018-09-08T03:36:07.840Z,99614.75
2018-09-08T03:38:35.523Z,99617.56
2018-09-08T03:41:02.988Z,99612.66
2018-09-08T03:43:30.541Z,99620.98
2018-09-08T03:45:58.061Z,99616.44
2018-09-08T03:48:25.516Z,99622.87
2018-09-08T03:50:52.987Z,99627.38
2018-09-08T03:53:20.490Z,99624.75
2018-09-08T03:55:48.032Z,99625.64
2018-09-08T03:58:15.492Z,99621.12
2018-09-08T04:00:43.067Z,99621.12
2018-09-08T04:03:12.093Z,99627.91
2018-09-08T04:05:41.097Z,99629.88
2018-09-08T04:08:10.190Z,99635.45
2018-09-08T04:10:39.152Z,99642.55
2018-09-08T04:13:08.189Z,99642.94
2018-09-08T04:15:37.133Z,99642.24
2018-09-08T04:18:06.166Z,99649.13
2018-09-08T04:20:35.132Z,99651.17
2018-09-08T04:23:04.133Z,99660.73
2018-09-08T04:25:33.165Z,99659.38
2018-09-08T04:28:02.135Z,99661.26
2018-09-08T04:30:31.141Z,99667.61
2018-09-08T04:33:00.117Z,99671.82
2018-09-08T04:35:29.204Z,99665.19
2018-09-08T04:37:58.196Z,99668.95
2018-09-08T04:40:27.229Z,99667.34
2018-09-08T04:42:56.176Z,99671.19
2018-09-08T04:45:25.153Z,99668.86
2018-09-08T04:47:54.169Z,99675.57
2018-09-08T04:50:23.209Z,99671.00
2018-09-08T04:52:52.223Z,99672.61
2018-09-08T04:55:21.209Z,99671.94
2018-09-08T04:57:50.265Z,99673.56
2018-09-08T05:00:19.304Z,99677.14
2018-09-08T05:02:48.332Z,99666.07
2018-09-08T05:05:17.397Z,99666.11
2018-09-08T05:07:46.412Z,99665.02
2018-09-08T05:10:15.485Z,99669.35
2018-09-08T05:12:44.522Z,99668.02
2018-09-08T05:15:13.571Z,99674.00
2018-09-08T05:17:42.613Z,99673.33
2018-09-08T05:20:11.673Z,99666.50
2018-09-08T05:22:40.712Z,99663.48
2018-09-08T05:25:09.751Z,99670.24
2018-09-08T05:27:38.769Z,99672.33
2018-09-08T05:30:07.808Z,99667.09
2018-09-08T05:32:36.832Z,99679.77
2018-09-08T05:35:05.934Z,99680.22
2018-09-08T05:37:34.957Z,99679.13
2018-09-08T05:40:04.105Z,99677.52
2018-09-08T05:42:33.104Z,99676.50
2018-09-08T05:45:02.097Z,99677.50
2018-09-08T05:47:31.117Z,99682.44
2018-09-08T05:50:00.125Z,99678.02
2018-09-08T05:52:29.184Z,99678.22
2018-09-08T05:54:58.191Z,99673.53
2018-09-08T05:57:27.260Z,99684.28
2018-09-08T05:59:56.257Z,99688.45
2018-09-08T06:02:25.209Z,99688.94
2018-09-08T06:04:54.228Z,99691.70
2018-09-08T06:07:23.220Z,99687.38
2018-09-08T06:09:52.244Z,99694.27
2018-09-08T06:12:21.229Z,99692.28
2018-09-08T06:14:50.232Z,99690.92
2018-09-08T06:17:19.304Z,99690.98
2018-09-08T06:19:48.346Z,99690.98
2018-09-08T06:22:17.446Z,99690.42
2018-09-08T06:24:46.470Z,99693.44
2018-09-08T06:27:15.532Z,99697.30
2018-09-08T06:29:44.540Z,99698.41
2018-09-08T06:32:13.640Z,99699.17
2018-09-08T06:34:42.685Z,99704.05
2018-09-08T06:37:11.766Z,99707.31
2018-09-08T06:39:40.716Z,99708.48
2018-09-08T06:42:09.653Z,99716.72
2018-09-08T06:44:38.689Z,99716.23
2018-09-08T06:47:07.680Z,99716.89
2018-09-08T06:49:36.736Z,99710.69
2018-09-08T06:52:05.814Z,99710.43
2018-09-08T06:54:34.832Z,99720.35
2018-09-08T06:57:03.780Z,99713.52
2018-09-08T06:59:32.805Z,99714.11
2018-09-08T07:02:01.830Z,99721.27
2018-09-08T07:04:30.852Z,99719.02
2018-09-08T07:06:59.868Z,99715.90
2018-09-08T07:09:28.908Z,99722.33
2018-09-08T07:11:57.961Z,99723.11
2018-09-08T07:14:27.040Z,99724.17
2018-09-08T07:16:56.113Z,99714.77
2018-09-08T07:19:25.172Z,99721.80
2018-09-08T07:21:54.155Z,99726.33
2018-09-08T07:24:23.273Z,99723.91
2018-09-08T07:26:52.327Z,99726.05
2018-09-08T07:29:21.410Z,99733.06
2018-09-08T07:31:50.421Z,99727.23
2018-09-08T07:34:19.457Z,99734.24
2018-09-08T07:36:48.440Z,99730.92
2018-09-08T07:39:17.429Z,99739.00
2018-09-08T07:41:46.511Z,99734.81
2018-09-08T07:44:15.541Z,99730.66
2018-09-08T07:46:44.483Z,99729.45
2018-09-08T07:49:13.517Z,99735.88
2018-09-08T07:51:42.548Z,99728.04
2018-09-08T07:54:11.551Z,99722.98
2018-09-08T07:56:40.532Z,99724.13
2018-09-08T07:59:09.662Z,99732.25
2018-09-08T08:01:38.680Z,99730.53
2018-09-08T08:04:07.717Z,99732.25
2018-09-08T08:06:36.788Z,99733.56
2018-09-08T08:09:07.526Z,99736.84
2018-09-08T08:11:36.753Z,99731.65
2018-09-08T08:14:05.828Z,99732.91
2018-09-08T08:16:34.991Z,99734.45
2018-09-08T08:19:04.005Z,99737.91
2018-09-08T08:21:33.000Z,99729.90
2018-09-08T08:24:02.077Z,99733.95
2018-09-08T08:26:31.044Z,99734.05
2018-09-08T08:29:00.208Z,99720.33
2018-09-08T08:31:29.219Z,99730.30
2018-09-08T08:33:58.337Z,99734.88
2018-09-08T08:36:27.402Z,99727.41
2018-09-08T08:38:56.732Z,99727.37
2018-09-08T08:41:25.699Z,99724.54
2018-09-08T08:43:54.646Z,99720.31
2018-09-08T08:46:23.604Z,99723.77
2018-09-08T08:48:52.696Z,99721.17
2018-09-08T08:51:32.477Z,99716.31
2018-09-08T08:54:14.649Z,99719.91
2018-09-08T08:56:43.735Z,99712.81
2018-09-08T08:59:12.741Z,99716.06
2018-09-08T09:01:42.118Z,99725.94
2018-09-08T09:04:11.493Z,99718.55
2018-09-08T09:06:40.550Z,99717.08
2018-09-08T09:09:12.773Z,99713.70
2018-09-08T09:11:41.807Z,99708.86
2018-09-08T09:14:11.485Z,99714.99
2018-09-08T09:16:40.699Z,99713.62
2018-09-08T09:19:35.929Z,99714.66
2018-09-08T09:22:17.136Z,99711.32
2018-09-08T09:24:52.770Z,99715.00
2018-09-08T09:27:21.889Z,99706.72
2018-09-08T09:29:51.028Z,99709.59
2018-09-08T09:32:20.084Z,99721.98
2018-09-08T09:34:49.030Z,99715.95
2018-09-08T09:37:18.116Z,99713.67
2018-09-08T09:39:47.373Z,99715.80
2018-09-08T09:42:16.401Z,99718.39
2018-09-08T09:44:45.444Z,99711.06
2018-09-08T09:47:14.532Z,99717.78
2018-09-08T09:49:43.492Z,99711.67
2018-09-08T09:52:12.515Z,99724.20
2018-09-08T09:54:41.496Z,99718.39
2018-09-08T09:57:10.492Z,99720.95
2018-09-08T09:59:39.527Z,99717.43
2018-09-08T10:03:12.050Z,99716.97
2018-09-08T10:05:41.033Z,99711.11
2018-09-08T10:08:10.097Z,99710.86
2018-09-08T10:10:39.137Z,99701.28
2018-09-08T10:13:08.122Z,99701.97
2018-09-08T10:15:37.140Z,99709.20
2018-09-08T10:18:06.133Z,99707.88
2018-09-08T10:20:35.172Z,99697.04
2018-09-08T10:23:04.218Z,99697.40
2018-09-08T10:25:33.285Z,99698.70
2018-09-08T10:28:02.290Z,99700.14
2018-09-08T10:30:31.260Z,99694.39
2018-09-08T10:33:00.295Z,99702.02
2018-09-08T10:35:29.292Z,99700.69
2018-09-08T10:37:58.333Z,99695.57
2018-09-08T10:40:27.420Z,99696.96
2018-09-08T10:42:56.380Z,99693.80
2018-09-08T10:45:25.368Z,99685.93
2018-09-08T10:47:54.373Z,99684.51
2018-09-08T10:50:23.497Z,99690.41
2018-09-08T10:52:52.532Z,99679.50
2018-09-08T10:55:21.556Z,99677.00
2018-09-08T10:57:50.526Z,99681.05
2018-09-08T11:00:19.606Z,99669.48
2018-09-08T11:02:48.934Z,99671.03
2018-09-08T11:05:17.569Z,99675.06
2018-09-08T11:07:46.647Z,99669.84
2018-09-08T11:10:15.743Z,99673.79
2018-09-08T11:12:44.717Z,99667.32
2018-09-08T11:15:13.720Z,99665.66
2018-09-08T11:17:42.726Z,99667.32
2018-09-08T11:20:11.836Z,99662.97
2018-09-08T11:22:40.812Z,99669.01
2018-09-08T11:25:09.837Z,99668.63
2018-09-08T11:27:38.811Z,99661.97
2018-09-08T11:30:08.260Z,99667.72
2018-09-08T11:32:37.222Z,99660.80
2018-09-08T11:35:06.386Z,99659.22
2018-09-08T11:37:35.352Z,99663.43
2018-09-08T11:40:04.317Z,99661.34
2018-09-08T11:42:33.465Z,99658.02
2018-09-08T11:45:02.468Z,99653.56
2018-09-08T11:47:31.495Z,99652.89
2018-09-08T11:50:00.465Z,99650.05
2018-09-08T11:52:29.463Z,99651.84
2018-09-08T11:54:58.429Z,99649.48
2018-09-08T11:57:27.373Z,99650.59
2018-09-08T11:59:56.397Z,99643.45
2018-09-08T12:02:25.340Z,99646.16
2018-09-08T12:04:54.372Z,99644.47
2018-09-08T12:07:23.339Z,99641.93
2018-09-08T12:09:52.297Z,99637.73
2018-09-08T12:12:21.322Z,99643.83
2018-09-08T12:14:50.260Z,99633.39
2018-09-08T12:17:19.344Z,99632.58
2018-09-08T12:19:48.369Z,99638.52
2018-09-08T12:22:17.443Z,99636.88
2018-09-08T12:24:46.483Z,99631.53
2018-09-08T12:27:15.497Z,99634.70
2018-09-08T12:29:44.599Z,99628.67
2018-09-08T12:32:13.552Z,99630.76
2018-09-08T12:34:42.717Z,99633.06
2018-09-08T12:37:11.723Z,99620.36
2018-09-08T12:39:40.640Z,99627.55
2018-09-08T12:42:09.600Z,99630.70
2018-09-08T12:44:38.541Z,99636.02
2018-09-08T12:47:07.508Z,99631.19
2018-09-08T12:49:36.471Z,99626.30
2018-09-08T12:52:05.596Z,99631.16
2018-09-08T12:54:34.592Z,99622.30
2018-09-08T12:57:03.584Z,99623.19
2018-09-08T12:59:32.578Z,99625.89
2018-09-08T13:02:01.596Z,99633.87
2018-09-08T13:04:30.557Z,99628.72
2018-09-08T13:06:59.541Z,99635.75
2018-09-08T13:09:28.605Z,99635.44
2018-09-08T13:11:57.617Z,99640.02
2018-09-08T13:14:26.590Z,99634.70
2018-09-08T13:16:55.569Z,99640.97
2018-09-08T13:19:24.496Z,99645.55
2018-09-08T13:21:53.517Z,99640.00
2018-09-08T13:24:22.592Z,99633.77
2018-09-08T13:26:51.680Z,99640.52
2018-09-08T13:29:20.635Z,99646.53
2018-09-08T13:31:49.577Z,99645.23
2018-09-08T13:34:18.653Z,99641.64
2018-09-08T13:36:47.592Z,99637.83
2018-09-08T13:39:16.540Z,99639.52
2018-09-08T13:41:45.673Z,99639.89
2018-09-08T13:44:14.721Z,99644.75
2018-09-08T13:46:43.655Z,99639.89
2018-09-08T13:49:12.648Z,99646.29
2018-09-08T13:51:41.594Z,99637.01
2018-09-08T13:54:10.552Z,99639.73
2018-09-08T13:56:39.585Z,99627.05
2018-09-08T13:59:08.693Z,99628.06
2018-09-08T14:01:37.708Z,99625.38
2018-09-08T14:04:06.915Z,99624.70
2018-09-08T14:06:35.828Z,99625.15
2018-09-08T14:09:05.100Z,99628.44
2018-09-08T14:11:34.028Z,99623.12
2018-09-08T14:14:02.976Z,99627.98
2018-09-08T14:16:31.932Z,99627.72
2018-09-08T14:19:01.004Z,99629.81
2018-09-08T14:21:29.996Z,99627.91
2018-09-08T14:23:59.024Z,99631.00
2018-09-08T14:26:28.097Z,99630.28
2018-09-08T14:28:57.122Z,99629.79
2018-09-08T14:31:26.145Z,99630.88
2018-09-08T14:34:01.069Z,99638.44
2018-09-08T14:36:30.132Z,99639.45
2018-09-08T14:38:59.145Z,99640.36
2018-09-08T14:41:28.205Z,99640.95
2018-09-08T14:43:57.159Z,99644.45
2018-09-08T14:46:26.116Z,99649.04
2018-09-08T14:48:55.088Z,99650.42
2018-09-08T14:51:24.051Z,99651.91
2018-09-08T14:53:53.120Z,99655.50
2018-09-08T14:56:22.167Z,99649.24
2018-09-08T14:58:51.224Z,99653.92
2018-09-08T15:01:20.420Z,99647.77
2018-09-08T15:03:49.355Z,99647.72
2018-09-08T15:06:18.357Z,99653.47
2018-09-08T15:08:47.300Z,99649.87
2018-09-08T15:11:16.493Z,99648.89
2018-09-08T15:13:45.464Z,99644.77
2018-09-08T15:16:14.517Z,99651.70
2018-09-08T15:18:43.729Z,99654.50
2018-09-08T15:21:12.729Z,99658.72
2018-09-08T15:23:41.793Z,99659.56
2018-09-08T15:26:10.796Z,99663.95
2018-09-08T15:28:39.957Z,99672.24
2018-09-08T15:31:08.915Z,99666.23
2018-09-08T15:33:37.917Z,99669.91
2018-09-08T15:36:06.975Z,99673.05
2018-09-08T15:38:35.899Z,99676.01
2018-09-08T15:41:04.971Z,99672.79
2018-09-08T15:43:34.058Z,99679.51
2018-09-08T15:46:03.171Z,99681.73
2018-09-08T15:48:32.164Z,99673.27
2018-09-08T15:51:01.120Z,99680.73
2018-09-08T15:53:30.302Z,99683.64
2018-09-08T15:55:59.476Z,99682.56
2018-09-08T15:58:28.556Z,99684.30
2018-09-08T16:00:57.520Z,99687.11
2018-09-08T16:03:26.591Z,99688.72
2018-09-08T16:05:55.704Z,99693.72
2018-09-08T16:08:24.653Z,99692.63
2018-09-08T16:10:53.688Z,99688.00
2018-09-08T16:13:22.631Z,99691.61
2018-09-08T16:15:51.653Z,99685.85
2018-09-08T16:18:20.661Z,99687.05
2018-09-08T16:20:49.710Z,99690.14
2018-09-08T16:23:18.687Z,99690.74
2018-09-08T16:25:47.636Z,99698.50
2018-09-08T16:28:17.235Z,99705.15
2018-09-08T16:30:46.248Z,99721.67
2018-09-08T16:33:15.224Z,99722.75
2018-09-08T16:35:44.180Z,99716.20
2018-09-08T16:38:13.204Z,99725.29
2018-09-08T16:40:42.188Z,99725.03
2018-09-08T16:43:11.127Z,99724.80
2018-09-08T16:45:40.144Z,99727.56
2018-09-08T16:48:09.169Z,99722.89
2018-09-08T16:50:38.163Z,99730.56
2018-09-08T16:53:07.502Z,99731.66
2018-09-08T16:55:36.537Z,99730.81
2018-09-08T16:58:05.586Z,99740.97
2018-09-08T17:00:34.674Z,99749.67
2018-09-08T17:03:03.623Z,99746.94
2018-09-08T17:05:32.618Z,99750.21
2018-09-08T17:08:01.635Z,99755.67
2018-09-08T17:10:30.665Z,99757.02
2018-09-08T17:12:59.676Z,99755.66
2018-09-08T17:15:28.746Z,99764.19
2018-09-08T17:17:57.711Z,99763.91
2018-09-08T17:20:26.793Z,99770.48
2018-09-08T17:22:55.883Z,99764.17
2018-09-08T17:25:24.887Z,99773.25
2018-09-08T17:27:53.892Z,99775.98
2018-09-08T17:30:23.016Z,99785.61
2018-09-08T17:32:52.157Z,99785.04
2018-09-08T17:35:21.096Z,99787.79
2018-09-08T17:37:50.159Z,99789.16
2018-09-08T17:40:19.388Z,99790.77
2018-09-08T17:42:48.399Z,99790.76
2018-09-08T17:45:17.356Z,99799.50
2018-09-08T17:47:46.390Z,99805.50
2018-09-08T17:50:15.381Z,99797.47
2018-09-08T17:52:44.379Z,99789.26
2018-09-08T17:55:13.344Z,99802.47
2018-09-08T17:57:42.365Z,99804.49
2018-09-08T18:00:12.818Z,99807.23
2018-09-08T18:02:42.444Z,99809.14
2018-09-08T18:05:11.997Z,99807.11
2018-09-08T18:07:41.045Z,99816.53
2018-09-08T18:10:10.443Z,99819.41
2018-09-08T18:12:39.582Z,99816.84
2018-09-08T18:15:09.144Z,99813.72
2018-09-08T18:17:38.216Z,99813.56
2018-09-08T18:20:07.352Z,99809.39
2018-09-08T18:22:37.097Z,99821.88
2018-09-08T18:25:06.376Z,99819.66
2018-09-08T18:27:35.459Z,99819.80
2018-09-08T18:30:04.546Z,99821.92
2018-09-08T18:32:33.569Z,99820.95
2018-09-08T18:35:02.593Z,99818.70
2018-09-08T18:37:31.599Z,99824.41
2018-09-08T18:40:00.621Z,99821.83
2018-09-08T18:42:29.600Z,99818.52
2018-09-08T18:44:58.589Z,99820.70
2018-09-08T18:47:27.617Z,99815.00
2018-09-08T18:49:56.677Z,99817.26
2018-09-08T18:52:26.589Z,99820.23
2018-09-08T18:54:55.700Z,99817.92
2018-09-08T18:57:24.712Z,99822.40
2018-09-08T18:59:53.738Z,99822.69
2018-09-08T19:02:22.696Z,99820.92
2018-09-08T19:04:51.723Z,99817.52
2018-09-08T19:07:20.679Z,99827.34
2018-09-08T19:09:54.848Z,99833.51
2018-09-08T19:12:23.852Z,99822.28
2018-09-08T19:15:28.531Z,99824.80
2018-09-08T19:17:57.465Z,99826.21
2018-09-08T19:20:31.589Z,99825.48
2018-09-08T19:23:00.624Z,99824.02
2018-09-08T19:25:29.580Z,99824.34
2018-09-08T19:27:58.601Z,99825.09
2018-09-08T19:30:27.657Z,99824.51
2018-09-08T19:32:56.628Z,99828.91
2018-09-08T19:35:30.668Z,99822.75
2018-09-08T19:37:59.676Z,99825.86
2018-09-08T19:40:33.730Z,99830.26
2018-09-08T19:43:02.911Z,99830.62
2018-09-08T19:45:31.950Z,99831.13
2018-09-08T19:48:04.205Z,99835.37
2018-09-08T19:50:33.624Z,99827.86
2018-09-08T19:53:07.648Z,99831.11
2018-09-08T19:55:36.635Z,99829.23
2018-09-08T19:58:10.724Z,99834.86
2018-09-08T20:00:39.760Z,99839.87
2018-09-08T20:03:08.760Z,99833.39
2018-09-08T20:05:37.878Z,99844.38
2018-09-08T20:08:07.065Z,99835.88
2018-09-08T20:10:36.084Z,99836.60
2018-09-08T20:13:05.078Z,99838.09
2018-09-08T20:15:34.174Z,99829.66
2018-09-08T20:18:03.169Z,99841.53
2018-09-08T20:20:32.180Z,99837.94
2018-09-08T20:23:01.305Z,99839.49
2018-09-08T20:25:30.373Z,99846.56
2018-09-08T20:27:59.414Z,99848.06
2018-09-08T20:30:28.396Z,99845.84
2018-09-08T20:32:57.484Z,99852.76
2018-09-08T20:35:26.505Z,99848.87
2018-09-08T20:37:55.465Z,99850.50
2018-09-08T20:40:24.427Z,99854.42
2018-09-08T20:42:53.368Z,99850.40
2018-09-08T20:45:22.415Z,99847.08
2018-09-08T20:47:54.311Z,99848.63
2018-09-08T20:50:23.551Z,99850.95
2018-09-08T20:52:52.504Z,99862.66
2018-09-08T20:55:21.443Z,99856.25
2018-09-08T20:57:50.444Z,99857.98
2018-09-08T21:00:19.446Z,99859.65
2018-09-08T21:02:48.398Z,99860.14
2018-09-08T21:05:17.424Z,99859.06
2018-09-08T21:07:46.518Z,99851.86
2018-09-08T21:10:15.539Z,99863.39
2018-09-08T21:12:44.486Z,99866.13
2018-09-08T21:15:13.505Z,99872.83
2018-09-08T21:17:42.565Z,99901.92
2018-09-08T21:20:11.588Z,99908.48
2018-09-08T21:22:40.528Z,99908.11
2018-09-08T21:25:09.617Z,99911.42
2018-09-08T21:27:38.696Z,99908.20
2018-09-08T21:30:07.692Z,99920.97
2018-09-08T21:32:36.647Z,99933.48
2018-09-08T21:35:05.580Z,99922.34
2018-09-08T21:37:34.608Z,99920.38
2018-09-08T21:40:03.621Z,99925.75
2018-09-08T21:42:32.636Z,99937.16
2018-09-08T21:45:01.710Z,99928.19
2018-09-08T21:47:30.648Z,99921.66
2018-09-08T21:49:59.649Z,99918.92
2018-09-08T21:52:28.700Z,99909.16
2018-09-08T21:54:57.704Z,99908.08
2018-09-08T21:57:26.673Z,99904.79
2018-09-08T21:59:55.681Z,99897.84
2018-09-08T22:02:24.684Z,99902.17
2018-09-08T22:04:53.698Z,99905.05
2018-09-08T22:07:22.800Z,99912.80
2018-09-08T22:09:51.870Z,99910.73
2018-09-08T22:12:20.783Z,99904.44
2018-09-08T22:14:49.760Z,99919.00
2018-09-08T22:17:18.763Z,99913.68
2018-09-08T22:19:47.696Z,99925.60
2018-09-08T22:22:16.643Z,99918.38
2018-09-08T22:24:45.695Z,99916.11
2018-09-08T22:27:14.689Z,99914.24
2018-09-08T22:29:43.652Z,99914.47
2018-09-08T22:32:12.645Z,99922.18
2018-09-08T22:34:41.760Z,99918.48
2018-09-08T22:37:10.776Z,99913.97
2018-09-08T22:39:39.780Z,99913.56
2018-09-08T22:42:08.765Z,99907.06
2018-09-08T22:44:37.786Z,99911.77
2018-09-08T22:47:06.992Z,99916.05
2018-09-08T22:49:36.040Z,99918.17
2018-09-08T22:52:05.043Z,99913.77
2018-09-08T22:54:33.982Z,99917.14
2018-09-08T22:57:02.928Z,99921.69
2018-09-08T22:59:32.010Z,99914.88
2018-09-08T23:02:01.016Z,99914.27
2018-09-08T23:04:30.037Z,99907.75
2018-09-08T23:06:59.060Z,99910.44
2018-09-08T23:09:28.152Z,99911.13
2018-09-08T23:11:57.095Z,99902.11
2018-09-08T23:14:26.093Z,99904.72
2018-09-08T23:16:55.047Z,99905.09
2018-09-08T23:19:23.978Z,99900.58
2018-09-08T23:21:52.988Z,99900.50
2018-09-08T23:24:21.988Z,99893.16
2018-09-08T23:26:51.149Z,99895.44
2018-09-08T23:29:20.083Z,99894.87
2018-09-08T23:31:49.072Z,99889.23
2018-09-08T23:34:18.052Z,99893.70
2018-09-08T23:36:47.101Z,99897.15
2018-09-08T23:39:16.132Z,99893.02
2018-09-08T23:41:45.072Z,99891.61
2018-09-08T23:44:14.090Z,99896.69
2018-09-08T23:46:43.153Z,99891.87
2018-09-08T23:49:12.201Z,99895.53
2018-09-08T23:51:41.265Z,99906.14
2018-09-08T23:54:10.211Z,99899.27
2018-09-08T23:56:39.172Z,99902.11
2018-09-08T23:59:08.112Z,99900.81
